Time;durP1;ratioP1;P1;durP2;ratioP2;P2;SDS_P1;SDS_P2;PMS_P1;PMS_P2;Temp;Humidity;BMP_temperature;BMP_pressure;BME280_temperature;BME280_humidity;BME280_pressure;Samples;Min_cycle;Max_cycle;Signal;HPM_P1;HPM_P2
2023/09/29 00:01:47;;;;;;;0.20;0.20;;;;;;;17.20;100.00;100256.81;5091221;28;20031;-61
2023/09/29 00:04:13;;;;;;;0.20;0.20;;;;;;;17.26;100.00;100268.09;5090843;28;20024;-61
2023/09/29 00:06:38;;;;;;;0.20;0.20;;;;;;;17.23;100.00;100267.38;5089124;28;20364;-61
2023/09/29 00:09:07;;;;;;;0.30;0.30;;;;;;;17.20;100.00;100281.84;5073889;28;20383;-61
2023/09/29 00:11:33;;;;;;;0.20;0.20;;;;;;;17.18;100.00;100267.66;5085992;28;20495;-61
2023/09/29 00:13:58;;;;;;;0.20;0.20;;;;;;;17.14;100.00;100268.75;5078325;28;20037;-61
2023/09/29 00:16:24;;;;;;;0.20;0.20;;;;;;;17.12;100.00;100259.91;5071463;28;20216;-61
2023/09/29 00:18:49;;;;;;;0.20;0.20;;;;;;;17.12;100.00;100264.44;5073481;28;20471;-62
2023/09/29 00:21:15;;;;;;;0.20;0.20;;;;;;;17.10;100.00;100268.06;5091138;28;20032;-61
2023/09/29 00:23:40;;;;;;;0.20;0.20;;;;;;;17.09;100.00;100273.53;5091142;28;20115;-61
2023/09/29 00:26:06;;;;;;;0.20;0.20;;;;;;;17.12;100.00;100277.88;5087787;28;20075;-61
2023/09/29 00:28:32;;;;;;;0.20;0.20;;;;;;;17.06;100.00;100266.50;5091317;28;20028;-61
2023/09/29 00:30:58;;;;;;;0.20;0.20;;;;;;;17.07;100.00;100272.72;5091070;28;20035;-61
2023/09/29 00:33:23;;;;;;;0.20;0.20;;;;;;;16.99;100.00;100274.97;5089826;28;20023;-61
2023/09/29 00:35:48;;;;;;;0.20;0.20;;;;;;;16.86;100.00;100272.09;5073512;28;20785;-61
2023/09/29 00:38:14;;;;;;;0.30;0.30;;;;;;;16.87;100.00;100273.81;5071385;28;20031;-57
2023/09/29 00:40:39;;;;;;;0.20;0.20;;;;;;;16.83;100.00;100277.66;5080877;28;20115;-57
2023/09/29 00:43:05;;;;;;;0.20;0.20;;;;;;;16.82;100.00;100273.19;5090427;28;20031;-57
2023/09/29 00:45:32;;;;;;;0.30;0.30;;;;;;;16.84;100.00;100270.44;5088417;28;20032;-57
2023/09/29 00:48:07;;;;;;;0.20;0.20;;;;;;;16.83;100.00;100266.03;5070352;28;20025;-57
2023/09/29 00:50:34;;;;;;;0.20;0.20;;;;;;;16.86;100.00;100257.78;5083555;28;20016;-57
2023/09/29 00:53:11;;;;;;;0.20;0.20;;;;;;;16.94;100.00;100252.84;5089618;28;20043;-57
2023/09/29 00:55:37;;;;;;;0.20;0.20;;;;;;;17.02;100.00;100256.88;5081132;28;20480;-56
2023/09/29 00:58:05;;;;;;;0.20;0.20;;;;;;;17.03;100.00;100244.31;5069198;28;20020;-56
2023/09/29 01:00:40;;;;;;;0.20;0.20;;;;;;;17.16;100.00;100266.88;5080043;28;20028;-56
2023/09/29 01:03:12;;;;;;;0.20;0.20;;;;;;;17.25;100.00;100277.09;5083151;28;20028;-57
2023/09/29 01:05:41;;;;;;;0.20;0.20;;;;;;;17.29;100.00;100265.22;5085294;28;20503;-56
2023/09/29 01:08:09;;;;;;;0.20;0.20;;;;;;;17.39;100.00;100258.38;5091058;28;20088;-57
2023/09/29 01:10:39;;;;;;;0.20;0.20;;;;;;;17.40;100.00;100248.47;5087062;28;20600;-56
2023/09/29 01:13:05;;;;;;;0.20;0.20;;;;;;;17.48;100.00;100260.56;5090408;28;20028;-57
2023/09/29 01:15:34;;;;;;;0.20;0.20;;;;;;;17.54;100.00;100262.94;5088497;28;20036;-57
2023/09/29 01:18:01;;;;;;;0.20;0.20;;;;;;;17.55;100.00;100253.00;5070776;28;20028;-56
2023/09/29 01:20:29;;;;;;;0.20;0.20;;;;;;;17.55;100.00;100247.63;5070687;28;20097;-57
2023/09/29 01:22:56;;;;;;;0.10;0.10;;;;;;;17.53;100.00;100250.41;5083106;28;20047;-57
2023/09/29 01:25:22;;;;;;;0.20;0.20;;;;;;;17.50;100.00;100245.22;5090660;28;20109;-57
2023/09/29 01:27:52;;;;;;;0.20;0.20;;;;;;;17.47;100.00;100247.22;5086979;28;20040;-56
2023/09/29 01:30:18;;;;;;;0.20;0.20;;;;;;;17.46;100.00;100246.34;5070467;28;20039;-57
2023/09/29 01:32:46;;;;;;;0.22;0.22;;;;;;;17.45;100.00;100247.31;5070293;28;20032;-57
2023/09/29 01:35:14;;;;;;;0.30;0.30;;;;;;;17.48;100.00;100240.91;5072376;28;20750;-57
2023/09/29 01:37:42;;;;;;;0.20;0.20;;;;;;;17.47;100.00;100236.44;5070059;28;20032;-57
2023/09/29 01:40:09;;;;;;;0.20;0.20;;;;;;;17.47;100.00;100240.03;5074356;28;20032;-57
2023/09/29 01:42:35;;;;;;;0.20;0.20;;;;;;;17.49;100.00;100240.81;5088841;28;20035;-57
2023/09/29 01:45:01;;;;;;;0.20;0.20;;;;;;;17.55;100.00;100243.13;5089095;28;20035;-57
2023/09/29 01:47:27;;;;;;;0.20;0.20;;;;;;;17.61;100.00;100247.31;5075206;28;20105;-57
2023/09/29 01:49:52;;;;;;;0.20;0.20;;;;;;;17.65;100.00;100247.03;5089211;28;20163;-61
2023/09/29 01:52:17;;;;;;;0.25;0.25;;;;;;;17.71;100.00;100241.28;5081155;28;20062;-61
2023/09/29 01:54:43;;;;;;;0.20;0.20;;;;;;;17.77;100.00;100238.25;5073590;28;20020;-61
2023/09/29 01:57:08;;;;;;;0.20;0.20;;;;;;;17.82;100.00;100243.38;5088321;28;20150;-60
2023/09/29 01:59:34;;;;;;;0.20;0.20;;;;;;;17.85;100.00;100246.75;5072339;28;20033;-62
2023/09/29 02:01:59;;;;;;;0.20;0.20;;;;;;;17.83;100.00;100235.19;5069697;28;20523;-61
2023/09/29 02:04:24;;;;;;;0.20;0.20;;;;;;;17.91;100.00;100242.81;5072096;28;20021;-62
2023/09/29 02:06:50;;;;;;;0.30;0.30;;;;;;;17.96;100.00;100249.66;5069637;28;20027;-61
2023/09/29 02:09:16;;;;;;;0.20;0.20;;;;;;;17.96;100.00;100243.41;5086733;28;20032;-61
2023/09/29 02:11:44;;;;;;;0.20;0.20;;;;;;;17.96;100.00;100236.22;5086782;28;20552;-61
2023/09/29 02:14:09;;;;;;;0.20;0.20;;;;;;;17.97;100.00;100240.63;5089864;28;20031;-60
2023/09/29 02:16:35;;;;;;;0.20;0.20;;;;;;;17.97;100.00;100240.63;5080982;28;20029;-60
2023/09/29 02:19:03;;;;;;;0.20;0.20;;;;;;;17.96;100.00;100238.91;5071960;28;20075;-62
2023/09/29 02:21:31;;;;;;;0.20;0.20;;;;;;;17.97;100.00;100226.31;5081918;28;20031;-61
2023/09/29 02:23:57;;;;;;;0.20;0.20;;;;;;;17.99;100.00;100221.72;5076463;28;20025;-61
2023/09/29 02:26:23;;;;;;;0.20;0.20;;;;;;;18.03;100.00;100217.88;5069565;28;20034;-61
2023/09/29 02:28:48;;;;;;;0.20;0.20;;;;;;;18.07;100.00;100230.19;5068614;28;20452;-62
2023/09/29 02:31:14;;;;;;;0.20;0.20;;;;;;;18.06;100.00;100220.38;5069587;28;20089;-61
2023/09/29 02:33:40;;;;;;;0.20;0.20;;;;;;;18.08;100.00;100232.78;5077405;28;20043;-61
2023/09/29 02:36:07;;;;;;;0.20;0.20;;;;;;;18.11;100.00;100237.13;5069209;28;20391;-60
2023/09/29 02:38:33;;;;;;;0.20;0.20;;;;;;;18.11;100.00;100231.72;5068256;28;20439;-60
2023/09/29 02:40:59;;;;;;;0.20;0.20;;;;;;;18.12;100.00;100242.41;5078081;28;20099;-61
2023/09/29 02:43:29;;;;;;;0.20;0.20;;;;;;;18.13;100.00;100244.16;5087581;28;20024;-61
2023/09/29 02:45:55;;;;;;;0.20;0.20;;;;;;;18.16;100.00;100245.78;5074739;28;20044;-61
2023/09/29 02:48:20;;;;;;;0.20;0.20;;;;;;;18.19;100.00;100261.75;5067251;28;20024;-61
2023/09/29 02:50:45;;;;;;;0.20;0.20;;;;;;;18.21;100.00;100260.72;5067192;28;20773;-61
2023/09/29 02:53:11;;;;;;;0.20;0.20;;;;;;;18.25;100.00;100253.31;5071095;28;20481;-61
2023/09/29 02:55:37;;;;;;;0.20;0.20;;;;;;;18.27;100.00;100238.78;5081265;28;20052;-61
2023/09/29 02:58:03;;;;;;;0.20;0.20;;;;;;;18.30;100.00;100232.38;5089354;28;20388;-57
2023/09/29 03:00:29;;;;;;;0.20;0.20;;;;;;;18.28;100.00;100235.16;5088724;28;20479;-61
2023/09/29 03:02:54;;;;;;;0.20;0.20;;;;;;;18.29;100.00;100234.19;5085268;28;20051;-61
2023/09/29 03:05:21;;;;;;;0.20;0.20;;;;;;;18.31;100.00;100250.25;5088741;28;20020;-61
2023/09/29 03:07:47;;;;;;;0.20;0.20;;;;;;;18.31;100.00;100251.13;5077644;28;20063;-61
2023/09/29 03:10:14;;;;;;;0.20;0.20;;;;;;;18.31;100.00;100244.88;5071359;28;20661;-61
2023/09/29 03:12:40;;;;;;;0.20;0.20;;;;;;;18.27;100.00;100238.78;5089307;28;20109;-61
2023/09/29 03:15:08;;;;;;;0.20;0.20;;;;;;;18.31;100.00;100244.88;5089214;28;20387;-61
2023/09/29 03:17:34;;;;;;;0.20;0.20;;;;;;;18.30;100.00;100240.47;5078487;28;20387;-61
2023/09/29 03:19:59;;;;;;;0.20;0.20;;;;;;;18.27;100.00;100249.56;5088869;28;20051;-61
2023/09/29 03:22:25;;;;;;;0.20;0.20;;;;;;;18.26;100.00;100238.91;5086140;28;20067;-60
2023/09/29 03:24:51;;;;;;;0.20;0.20;;;;;;;18.28;100.00;100245.06;5088047;28;20444;-61
2023/09/29 03:27:18;;;;;;;0.20;0.20;;;;;;;18.28;100.00;100251.31;5088038;28;20024;-62
2023/09/29 03:29:43;;;;;;;0.20;0.20;;;;;;;18.28;100.00;100255.84;5076019;28;20036;-61
2023/09/29 03:32:09;;;;;;;0.20;0.20;;;;;;;18.29;100.00;100253.03;5067448;28;20037;-61
2023/09/29 03:34:35;;;;;;;0.20;0.20;;;;;;;18.34;100.00;100260.84;5068557;28;20025;-60
2023/09/29 03:37:00;;;;;;;0.20;0.20;;;;;;;18.33;100.00;100267.19;5067018;28;20085;-61
2023/09/29 03:39:25;;;;;;;0.20;0.20;;;;;;;18.35;100.00;100263.44;5069327;28;20456;-61
2023/09/29 03:41:51;;;;;;;0.30;0.30;;;;;;;18.36;100.00;100264.31;5088202;28;20031;-61
2023/09/29 03:44:16;;;;;;;0.20;0.20;;;;;;;18.38;100.00;100263.25;5086285;28;20039;-61
2023/09/29 03:46:42;;;;;;;0.20;0.20;;;;;;;18.40;100.00;100254.25;5082157;28;20032;-61
2023/09/29 03:49:11;;;;;;;0.20;0.20;;;;;;;18.44;100.00;100262.06;5091412;28;20042;-61
2023/09/29 03:51:38;;;;;;;0.20;0.20;;;;;;;18.49;100.00;100259.06;5076931;28;20484;-61
2023/09/29 03:54:04;;;;;;;0.20;0.20;;;;;;;18.50;100.00;100267.06;5072811;28;20056;-61
2023/09/29 03:56:29;;;;;;;0.20;0.20;;;;;;;18.51;100.00;100251.78;5090357;28;20044;-61
2023/09/29 03:58:55;;;;;;;0.20;0.20;;;;;;;18.54;100.00;100256.97;5074168;28;20127;-61
2023/09/29 04:01:21;;;;;;;0.20;0.20;;;;;;;18.53;100.00;100257.94;5071994;28;20032;-61
2023/09/29 04:03:47;;;;;;;0.20;0.20;;;;;;;18.52;100.00;100253.53;5074456;28;20051;-61
2023/09/29 04:06:12;;;;;;;0.20;0.20;;;;;;;18.55;100.00;100251.47;5071804;28;20087;-61
2023/09/29 04:08:38;;;;;;;0.20;0.20;;;;;;;18.54;100.00;100251.56;5073714;28;20032;-57
2023/09/29 04:11:04;;;;;;;0.10;0.10;;;;;;;18.54;100.00;100256.97;5078705;28;20040;-56
2023/09/29 04:13:30;;;;;;;0.30;0.30;;;;;;;18.52;100.00;100269.69;5092217;28;20030;-56
2023/09/29 04:15:58;;;;;;;0.20;0.20;;;;;;;18.55;100.00;100264.94;5091734;28;20034;-57
2023/09/29 04:18:24;;;;;;;0.20;0.20;;;;;;;18.55;100.00;100274.88;5088517;28;20043;-56
2023/09/29 04:20:49;;;;;;;0.20;0.20;;;;;;;18.56;100.00;100265.81;5091797;28;20024;-57
2023/09/29 04:23:14;;;;;;;0.20;0.20;;;;;;;18.58;100.00;100266.59;5091598;28;20100;-57
2023/09/29 04:25:40;;;;;;;0.20;0.20;;;;;;;18.59;99.99;100277.28;5089279;28;20232;-56
2023/09/29 04:28:05;;;;;;;0.20;0.20;;;;;;;18.61;99.16;100278.06;5072901;28;20034;-57
2023/09/29 04:30:31;;;;;;;0.20;0.20;;;;;;;18.61;98.88;100278.06;5087682;28;20020;-56
2023/09/29 04:32:56;;;;;;;0.20;0.20;;;;;;;18.62;98.75;100276.22;5077112;28;20036;-57
2023/09/29 04:35:22;;;;;;;0.20;0.20;;;;;;;18.61;98.77;100275.38;5071226;28;20025;-57
2023/09/29 04:37:49;;;;;;;0.20;0.20;;;;;;;18.62;98.69;100276.22;5088209;28;20097;-57
2023/09/29 04:40:15;;;;;;;0.20;0.20;;;;;;;18.64;98.55;100271.59;5076792;28;20024;-57
2023/09/29 04:42:40;;;;;;;0.20;0.20;;;;;;;18.64;97.71;100274.31;5080105;28;20040;-57
2023/09/29 04:45:06;;;;;;;0.20;0.20;;;;;;;18.64;96.92;100277.00;5071128;28;20029;-57
2023/09/29 04:47:32;;;;;;;0.20;0.20;;;;;;;18.61;95.86;100272.69;5071291;28;20032;-56
2023/09/29 04:49:58;;;;;;;0.20;0.20;;;;;;;18.70;95.16;100269.41;5070308;28;20032;-57
2023/09/29 04:52:27;;;;;;;0.20;0.20;;;;;;;18.70;94.71;100282.03;5072663;28;20036;-57
2023/09/29 04:54:53;;;;;;;0.20;0.20;;;;;;;18.71;94.60;100276.53;5076914;28;20016;-57
2023/09/29 04:57:19;;;;;;;0.20;0.20;;;;;;;18.74;94.91;100278.16;5074211;28;20138;-57
2023/09/29 04:59:45;;;;;;;0.20;0.20;;;;;;;18.74;94.70;100280.88;5071192;28;20369;-57
2023/09/29 05:02:10;;;;;;;0.20;0.20;;;;;;;18.76;94.60;100278.94;5087240;28;20054;-57
2023/09/29 05:04:36;;;;;;;0.20;0.20;;;;;;;18.78;94.66;100272.47;5090807;28;20061;-58
2023/09/29 05:07:01;;;;;;;0.20;0.20;;;;;;;18.77;94.97;100276.16;5085343;28;20030;-57
2023/09/29 05:09:26;;;;;;;0.20;0.20;;;;;;;18.76;95.13;100281.66;5089445;28;20070;-56
2023/09/29 05:11:52;;;;;;;0.20;0.20;;;;;;;18.72;94.71;100282.78;5070841;28;20140;-56
2023/09/29 05:14:17;;;;;;;0.20;0.20;;;;;;;18.68;94.80;100275.88;5070330;28;20020;-57
2023/09/29 05:16:43;;;;;;;0.20;0.20;;;;;;;18.71;95.11;100284.63;5061750;28;20052;-56
2023/09/29 05:19:10;;;;;;;0.20;0.20;;;;;;;18.67;95.26;100276.81;5052190;28;20052;-60
2023/09/29 05:21:36;;;;;;;0.20;0.20;;;;;;;18.58;95.48;100280.06;5049642;28;20036;-61
2023/09/29 05:24:02;;;;;;;0.20;0.20;;;;;;;18.51;95.77;100284.09;5051194;28;20067;-60
2023/09/29 05:26:27;;;;;;;0.20;0.20;;;;;;;18.41;96.35;100272.13;5048462;28;20033;-60
2023/09/29 05:28:53;;;;;;;0.20;0.20;;;;;;;18.33;97.24;100275.28;5050153;28;20043;-61
2023/09/29 05:31:19;;;;;;;0.20;0.20;;;;;;;18.23;97.61;100274.97;5052725;28;20036;-61
2023/09/29 05:33:44;;;;;;;0.20;0.20;;;;;;;18.20;98.26;100274.28;5049602;28;20100;-61
2023/09/29 05:36:10;;;;;;;0.20;0.20;;;;;;;18.18;99.24;100271.69;5051538;28;20396;-61
2023/09/29 05:38:35;;;;;;;0.17;0.17;;;;;;;18.16;99.46;100270.03;5060727;28;20029;-61
2023/09/29 05:41:01;;;;;;;0.20;0.20;;;;;;;18.16;99.29;100272.72;5068518;28;20162;-61
2023/09/29 05:43:26;;;;;;;0.20;0.20;;;;;;;18.18;98.84;100282.44;5065639;28;20389;-61
2023/09/29 05:45:51;;;;;;;0.20;0.20;;;;;;;18.19;97.85;100281.47;5070176;28;20036;-60
2023/09/29 05:48:17;;;;;;;0.20;0.20;;;;;;;18.19;97.64;100284.16;5062295;28;20032;-60
2023/09/29 05:50:43;;;;;;;0.20;0.20;;;;;;;18.22;98.11;100289.38;5050008;28;20111;-61
2023/09/29 05:53:08;;;;;;;0.20;0.20;;;;;;;18.23;98.05;100291.13;5050022;28;20419;-61
2023/09/29 05:55:34;;;;;;;0.17;0.17;;;;;;;18.24;98.46;100297.34;5061574;28;20099;-60
2023/09/29 05:58:00;;;;;;;0.20;0.20;;;;;;;18.25;98.96;100296.41;5058845;28;20509;-61
2023/09/29 06:00:26;;;;;;;0.20;0.20;;;;;;;18.26;99.58;100299.00;5049956;28;20037;-60
2023/09/29 06:02:52;;;;;;;0.20;0.20;;;;;;;18.31;99.48;100299.59;5049581;28;20047;-61
2023/09/29 06:05:19;;;;;;;0.10;0.10;;;;;;;18.37;99.52;100301.03;5067114;28;20036;-60
2023/09/29 06:07:45;;;;;;;0.20;0.20;;;;;;;18.43;99.91;100299.84;5055024;28;20048;-60
2023/09/29 06:10:11;;;;;;;0.20;0.20;;;;;;;18.52;100.00;100307.41;5058263;28;20412;-60
2023/09/29 06:12:37;;;;;;;0.20;0.20;;;;;;;18.61;100.00;100309.53;5079463;28;20097;-60
2023/09/29 06:15:03;;;;;;;0.20;0.20;;;;;;;18.70;100.00;100307.13;5068929;28;20480;-60
2023/09/29 06:17:30;;;;;;;0.20;0.20;;;;;;;18.82;100.00;100314.47;5070057;28;20028;-60
2023/09/29 06:19:55;;;;;;;0.20;0.20;;;;;;;18.95;99.47;100301.09;5069802;28;20341;-60
2023/09/29 06:22:21;;;;;;;0.20;0.20;;;;;;;19.10;98.75;100302.84;5077625;28;20035;-60
2023/09/29 06:24:47;;;;;;;0.20;0.20;;;;;;;19.41;99.65;100299.94;5086308;28;20857;-59
2023/09/29 06:27:13;;;;;;;0.20;0.20;;;;;;;20.25;94.38;100304.25;5070209;28;20177;-60
2023/09/29 06:29:39;;;;;;;0.20;0.20;;;;;;;20.74;87.05;100298.09;5068536;28;20108;-56
2023/09/29 06:32:05;;;;;;;0.20;0.20;;;;;;;21.73;83.22;100290.00;5068068;28;20177;-57
2023/09/29 06:34:31;;;;;;;0.20;0.20;;;;;;;22.95;73.82;100293.25;5071665;28;20027;-56
2023/09/29 06:36:56;;;;;;;0.10;0.10;;;;;;;24.00;68.67;100291.91;5074730;28;20403;-57
2023/09/29 06:39:22;;;;;;;0.20;0.20;;;;;;;23.86;65.19;100292.13;5069538;28;20024;-56
2023/09/29 06:41:47;;;;;;;0.20;0.20;;;;;;;22.82;66.90;100298.78;5072408;28;20028;-57
2023/09/29 06:44:13;;;;;;;0.10;0.10;;;;;;;22.08;70.56;100295.53;5089601;28;20092;-57
2023/09/29 06:46:39;;;;;;;0.20;0.20;;;;;;;21.71;74.25;100296.53;5078018;28;20813;-56
2023/09/29 06:49:04;;;;;;;0.20;0.20;;;;;;;21.41;74.74;100298.75;5069161;28;20031;-57
2023/09/29 06:51:30;;;;;;;0.20;0.20;;;;;;;21.00;76.64;100298.16;5080505;28;20177;-56
2023/09/29 06:53:55;;;;;;;0.20;0.20;;;;;;;20.65;78.66;100304.16;5088408;28;20050;-56
2023/09/29 06:56:21;;;;;;;0.10;0.10;;;;;;;20.44;80.13;100318.28;5089126;28;20058;-57
2023/09/29 06:58:49;;;;;;;0.10;0.10;;;;;;;20.30;80.69;100304.81;5080083;28;20112;-57
2023/09/29 07:01:15;;;;;;;0.20;0.20;;;;;;;20.24;81.41;100308.81;5071291;28;20017;-57
2023/09/29 07:03:40;;;;;;;0.10;0.10;;;;;;;20.23;81.06;100312.47;5068968;28;20143;-57
2023/09/29 07:06:05;;;;;;;0.20;0.20;;;;;;;20.15;80.84;100313.94;5072405;28;20024;-57
2023/09/29 07:08:31;;;;;;;0.20;0.20;;;;;;;20.07;81.34;100317.16;5088434;28;20032;-57
2023/09/29 07:10:57;;;;;;;0.13;0.13;;;;;;;20.01;81.70;100325.66;5074556;28;20057;-57
2023/09/29 07:13:23;;;;;;;0.10;0.10;;;;;;;20.03;81.88;100326.41;5068812;28;20048;-57
2023/09/29 07:15:48;;;;;;;0.20;0.20;;;;;;;21.21;81.83;100329.94;5071827;28;20033;-57
2023/09/29 07:18:16;;;;;;;0.13;0.13;;;;;;;22.67;71.90;100315.41;5071736;28;20434;-56
2023/09/29 07:20:42;;;;;;;0.10;0.10;;;;;;;23.94;68.46;100324.97;5086094;28;20036;-57
2023/09/29 07:23:11;;;;;;;0.10;0.10;;;;;;;25.33;60.40;100332.91;5077435;28;20460;-57
2023/09/29 07:25:37;;;;;;;0.10;0.10;;;;;;;25.54;58.86;100333.75;5074191;28;20081;-57
2023/09/29 07:28:04;;;;;;;0.10;0.10;;;;;;;26.66;55.34;100325.16;5084032;28;20073;-57
2023/09/29 07:30:30;;;;;;;0.10;0.10;;;;;;;27.77;51.40;100329.78;5088222;28;20088;-56
2023/09/29 07:32:55;;;;;;;0.10;0.10;;;;;;;28.75;48.50;100324.41;5091852;28;20037;-56
2023/09/29 07:35:21;;;;;;;0.10;0.10;;;;;;;29.54;46.69;100328.75;5085641;28;20031;-56
2023/09/29 07:37:46;;;;;;;0.10;0.10;;;;;;;30.10;44.03;100326.28;5090572;28;20030;-57
2023/09/29 07:40:12;;;;;;;0.10;0.10;;;;;;;30.35;43.59;100330.84;5088025;28;20028;-57
2023/09/29 07:42:37;;;;;;;0.10;0.10;;;;;;;30.52;43.57;100327.13;5075029;28;20085;-56
2023/09/29 07:45:04;;;;;;;0.10;0.10;;;;;;;30.45;43.01;100326.06;5072479;28;20070;-57
2023/09/29 07:47:29;;;;;;;0.00;0.00;;;;;;;30.24;44.03;100325.69;5085451;28;20032;-56
2023/09/29 07:49:55;;;;;;;0.00;0.00;;;;;;;30.59;43.61;100322.66;5086401;28;20035;-56
2023/09/29 07:52:27;;;;;;;0.10;0.10;;;;;;;30.82;42.75;100323.72;5072404;28;20725;-56
2023/09/29 07:54:52;;;;;;;0.00;0.00;;;;;;;30.86;42.61;100319.63;5074876;28;20387;-56
2023/09/29 07:57:17;;;;;;;0.05;0.05;;;;;;;30.89;42.95;100313.78;5077138;28;20040;-57
2023/09/29 07:59:43;;;;;;;0.10;0.10;;;;;;;30.51;42.77;100311.66;5072498;28;20023;-57
2023/09/29 08:02:08;;;;;;;0.10;0.10;;;;;;;30.47;43.24;100314.91;5074545;28;20100;-56
2023/09/29 08:04:34;;;;;;;0.00;0.00;;;;;;;30.23;43.96;100315.72;5072352;28;20029;-57
2023/09/29 08:06:59;;;;;;;0.00;0.00;;;;;;;29.87;44.13;100318.84;5071415;28;20040;-57
2023/09/29 08:09:24;;;;;;;0.00;0.00;;;;;;;29.85;44.92;100326.38;5074976;28;20031;-56
2023/09/29 08:11:50;;;;;;;0.03;0.03;;;;;;;29.67;45.31;100323.72;5075545;28;20053;-57
2023/09/29 08:14:15;;;;;;;0.00;0.00;;;;;;;29.56;45.22;100332.19;5088997;28;20111;-57
2023/09/29 08:16:42;;;;;;;0.00;0.00;;;;;;;29.38;46.04;100325.91;5086633;28;20059;-57
2023/09/29 08:19:07;;;;;;;0.00;0.00;;;;;;;29.59;45.54;100323.63;5071754;28;20523;-57
2023/09/29 08:21:33;;;;;;;0.00;0.00;;;;;;;29.52;45.45;100323.44;5088864;28;20026;-56
2023/09/29 08:24:02;;;;;;;0.00;0.00;;;;;;;29.49;45.57;100333.84;5083506;28;20035;-57
2023/09/29 08:26:28;;;;;;;0.00;0.00;;;;;;;29.41;45.61;100328.34;5073328;28;20036;-56
2023/09/29 08:28:56;;;;;;;0.00;0.00;;;;;;;29.50;45.49;100343.81;5074136;28;20052;-56
2023/09/29 08:31:21;;;;;;;0.00;0.00;;;;;;;29.17;46.08;100342.75;5074723;28;20024;-56
2023/09/29 08:33:47;;;;;;;0.00;0.00;;;;;;;29.47;45.69;100341.41;5073587;28;20115;-56
2023/09/29 08:36:12;;;;;;;0.00;0.00;;;;;;;29.62;46.37;100340.63;5072319;28;20031;-56
2023/09/29 08:38:37;;;;;;;0.00;0.00;;;;;;;29.76;45.55;100322.75;5080851;28;20026;-56
2023/09/29 08:41:03;;;;;;;0.00;0.00;;;;;;;30.01;44.98;100343.78;5072825;28;20037;-56
2023/09/29 08:43:29;;;;;;;0.00;0.00;;;;;;;30.09;44.71;100335.56;5071479;28;20790;-57
2023/09/29 08:45:58;;;;;;;0.00;0.00;;;;;;;30.16;45.16;100336.63;5084561;28;20054;-57
2023/09/29 08:48:27;;;;;;;0.00;0.00;;;;;;;30.30;43.88;100343.34;5071752;28;20028;-57
2023/09/29 08:50:56;;;;;;;0.00;0.00;;;;;;;30.25;43.40;100349.34;5085864;28;20047;-57
2023/09/29 08:53:25;;;;;;;0.00;0.00;;;;;;;30.27;44.10;100349.19;5073198;28;20021;-56
2023/09/29 08:55:54;;;;;;;0.00;0.00;;;;;;;30.49;43.81;100354.94;5072753;28;20028;-57
2023/09/29 08:58:20;;;;;;;0.00;0.00;;;;;;;30.76;43.75;100357.34;5078002;28;20027;-56
2023/09/29 09:00:45;;;;;;;0.00;0.00;;;;;;;31.23;43.81;100353.94;5072614;28;20090;-57
2023/09/29 09:03:11;;;;;;;0.00;0.00;;;;;;;31.16;42.39;100347.41;5070635;28;20032;-57
2023/09/29 09:05:37;;;;;;;0.00;0.00;;;;;;;30.96;42.67;100346.03;5070638;28;20404;-56
2023/09/29 09:08:03;;;;;;;0.00;0.00;;;;;;;30.89;43.45;100362.38;5072446;28;20040;-56
2023/09/29 09:10:34;;;;;;;0.00;0.00;;;;;;;31.21;43.45;100356.00;5074397;28;20138;-57
2023/09/29 09:13:00;;;;;;;0.00;0.00;;;;;;;31.37;42.94;100367.03;5083477;28;20028;-56
2023/09/29 09:15:26;;;;;;;0.00;0.00;;;;;;;31.28;41.76;100355.16;5079235;28;20032;-57
2023/09/29 09:17:52;;;;;;;0.00;0.00;;;;;;;31.61;42.48;100361.47;5086409;28;20035;-57
2023/09/29 09:20:18;;;;;;;0.00;0.00;;;;;;;31.69;41.56;100353.19;5072494;28;20364;-57
2023/09/29 09:22:54;;;;;;;0.00;0.00;;;;;;;32.01;41.65;100366.88;5072476;28;20027;-57
2023/09/29 09:25:42;;;;;;;0.00;0.00;;;;;;;32.41;41.26;100358.44;5070773;28;20028;-57
2023/09/29 09:28:16;;;;;;;0.00;0.00;;;;;;;32.07;40.90;100366.16;5076829;28;20474;-57
2023/09/29 09:30:42;;;;;;;0.00;0.00;;;;;;;31.92;41.69;100373.44;5072388;28;20403;-56
2023/09/29 09:33:21;;;;;;;0.00;0.00;;;;;;;31.70;42.65;100368.66;5070178;28;20028;-57
2023/09/29 09:35:47;;;;;;;0.00;0.00;;;;;;;31.61;41.34;100362.34;5084828;28;20379;-57
2023/09/29 09:38:13;;;;;;;0.00;0.00;;;;;;;31.79;42.23;100364.88;5078518;28;20031;-57
2023/09/29 09:40:39;;;;;;;0.00;0.00;;;;;;;32.05;41.62;100362.72;5078505;28;20034;-57
2023/09/29 09:43:09;;;;;;;0.00;0.00;;;;;;;32.60;41.33;100359.88;5070956;28;20031;-57
2023/09/29 09:45:40;;;;;;;0.00;0.00;;;;;;;32.84;40.21;100359.69;5056537;28;20029;-57
2023/09/29 09:48:08;;;;;;;0.00;0.00;;;;;;;32.56;40.46;100361.25;5078066;28;20020;-57
2023/09/29 09:50:36;;;;;;;0.00;0.00;;;;;;;33.01;40.42;100362.19;5082664;28;20103;-57
2023/09/29 09:53:04;;;;;;;0.00;0.00;;;;;;;33.27;39.98;100361.75;5085372;28;20035;-57
2023/09/29 09:55:37;;;;;;;0.00;0.00;;;;;;;33.48;38.96;100369.38;5072044;28;20503;-57
2023/09/29 09:58:16;;;;;;;0.00;0.00;;;;;;;33.39;39.36;100369.38;5072763;28;20028;-57
2023/09/29 10:00:44;;;;;;;0.00;0.00;;;;;;;33.32;39.26;100367.59;5081053;28;20064;-57
2023/09/29 10:03:14;;;;;;;0.00;0.00;;;;;;;33.49;39.27;100360.03;5084019;28;20657;-57
2023/09/29 10:05:42;;;;;;;0.00;0.00;;;;;;;33.62;39.15;100366.63;5085456;28;20095;-57
2023/09/29 10:08:10;;;;;;;0.00;0.00;;;;;;;33.76;37.89;100363.00;5083667;28;20032;-57
2023/09/29 10:10:41;;;;;;;0.00;0.00;;;;;;;33.83;39.01;100360.34;5079521;28;20522;-58
2023/09/29 10:13:12;;;;;;;0.00;0.00;;;;;;;33.82;39.13;100364.16;5070161;28;20877;-57
2023/09/29 10:15:40;;;;;;;0.00;0.00;;;;;;;33.82;39.77;100361.38;5084198;28;20028;-57
2023/09/29 10:18:18;;;;;;;0.00;0.00;;;;;;;34.19;38.61;100359.38;5071600;28;20969;-57
2023/09/29 10:20:54;;;;;;;0.00;0.00;;;;;;;34.56;38.39;100358.38;5085735;28;20471;-57
2023/09/29 10:23:20;;;;;;;0.00;0.00;;;;;;;34.81;38.45;100348.63;5079644;28;20039;-57
2023/09/29 10:25:57;;;;;;;0.00;0.00;;;;;;;34.73;37.19;100346.00;5086116;28;20032;-57
2023/09/29 10:28:40;;;;;;;0.00;0.00;;;;;;;34.73;38.30;100347.94;5073870;28;20059;-57
2023/09/29 10:31:07;;;;;;;;;;;;;;;34.70;37.69;100346.41;5071443;28;20047;-57
2023/09/29 10:33:32;;;;;;;0.00;0.00;;;;;;;34.36;37.76;100354.50;5072015;28;19954;-57
2023/09/29 10:35:57;;;;;;;0.00;0.00;;;;;;;34.43;38.83;100363.75;5075737;28;20055;-57
2023/09/29 10:38:23;;;;;;;0.00;0.00;;;;;;;34.43;38.65;100358.25;5072814;28;20043;-58
2023/09/29 10:40:49;;;;;;;0.00;0.00;;;;;;;34.39;38.25;100357.72;5076281;28;20399;-58
2023/09/29 10:43:18;;;;;;;0.00;0.00;;;;;;;34.45;39.58;100353.34;5076298;28;20118;-57
2023/09/29 10:45:44;;;;;;;0.00;0.00;;;;;;;34.83;38.28;100349.31;5077380;28;20034;-57
2023/09/29 10:48:10;;;;;;;0.00;0.00;;;;;;;34.93;37.38;100354.53;5071612;28;20127;-57
2023/09/29 10:50:44;;;;;;;0.00;0.00;;;;;;;34.86;37.80;100342.53;5068584;28;20062;-57
2023/09/29 10:53:11;;;;;;;0.00;0.00;;;;;;;34.58;37.57;100353.53;5070077;28;20044;-58
2023/09/29 10:55:43;;;;;;;0.00;0.00;;;;;;;34.55;38.96;100348.38;5075660;28;20028;-58
2023/09/29 10:58:12;;;;;;;0.00;0.00;;;;;;;35.05;38.50;100351.06;5085705;28;20379;-58
2023/09/29 11:00:47;;;;;;;0.00;0.00;;;;;;;35.40;38.29;100350.13;5083600;28;20039;-57
2023/09/29 11:03:13;;;;;;;0.00;0.00;;;;;;;35.52;37.18;100354.03;5073043;28;20140;-57
2023/09/29 11:05:53;;;;;;;0.00;0.00;;;;;;;35.62;37.81;100343.44;5084415;28;20083;-58
2023/09/29 11:08:20;;;;;;;0.00;0.00;;;;;;;35.51;36.64;100338.47;5082396;28;20502;-60
2023/09/29 11:11:02;;;;;;;0.00;0.00;;;;;;;35.52;36.35;100334.63;5075913;28;20072;-60
2023/09/29 11:13:29;;;;;;;0.00;0.00;;;;;;;35.16;36.95;100325.59;5074917;28;20423;-60
2023/09/29 11:15:55;;;;;;;0.00;0.00;;;;;;;34.79;37.88;100323.13;5075452;28;20028;-61
2023/09/29 11:18:34;;;;;;;0.00;0.00;;;;;;;34.92;38.26;100316.88;5085719;28;20020;-60
2023/09/29 11:21:20;;;;;;;0.00;0.00;;;;;;;35.05;36.62;100326.16;5081091;28;20080;-60